aviador You're here:

SCVM Decoded Metar

in
Report Time2018-01-18 11:00:00
UTC Time2018-01-18 11:47:12
Flight Rules vfr VFR
WindCalm
Visibility9999 m
Phenomena:N/A
Clouds:N/A
Expected CloudBase > 400 ft AGL from Temp-Dew spread
CeilingNone
Temp12°C
Dew Point11°C (94% RH)
QNH1015 hPa
Raw Report
METAR SCVM 181100Z 00000KT CAVOK 12/11 Q1015=

Extra information for SCVM:More info

Social comments